Welcome to MDBA River Data – providing flow and storage information for the River Murray System. For information from other catchments please contact your relevant state water agency.

The site aims to give an overview only of conditions across the whole of the River Murray System and some sites may be off-line due to flood inundation and no data is shown.

For the latest river heights please refer to Australia Rainfall and River Conditions (bom.gov.au)  For the latest flood watches and warnings see National Warnings Summary (bom.gov.au).

Forecasts are only available for sites displaying the forecast symbol.

Some water levels are actually in metres AHD (Australian Height Datum), click individual sites for more details.

Scroll for more >

River gauges, storages, and weirs in the Murray–Darling Basin

Typesort descending Location River Water level Flow Volume Release Water temp Salinity Rainfall
River Gauge Gulpa Creek Offtake Murray 3.64 m 3/12/2022 9:00 1304 ML/Day 3/12/2022 9:00 Not measured Not measured Not measured Not measured Not measured Full data
River Gauge Wakool Canal Wakool 0.59 m 3/12/2022 10:00 Not measured Not measured 651 ML/d3/12/2022 10:00 Not measured Not measured Not measured Full data
River Gauge Kerang Loddon 1.48 m 3/12/2022 9:00 1931 ML/Day 3/12/2022 9:00 Not measured Not measured 22.5°C 3/12/2022 9:00 678.6 μS/cm 3/12/2022 9:00 Not measured Full data
River Gauge Wakool Junction Murray 11.71 m 3/12/2022 9:00 165488 ML/Day 3/12/2022 9:00 Not measured Not measured 20.6°C 3/12/2022 9:00 366.5 μS/cm 3/12/2022 9:00 Not measured Full data
River Gauge Corowa Murray 5.81 m 3/12/2022 10:00 45499 ML/Day 3/12/2022 10:00 Not measured Not measured 20.7°C 3/12/2022 10:00 61.7 μS/cm 3/12/2022 10:00 Not measured Full data
River Gauge Tallandoon Mitta 3.41 m 3/12/2022 9:00 10001 ML/Day 3/12/2022 9:00 Not measured Not measured 16.5°C 3/12/2022 9:00 30.4 μS/cm 3/12/2022 9:00 Not measured Full data
River Gauge Barmah Murray 6.76 m 3/12/2022 9:00 32555 ML/Day 3/12/2022 9:00 Not measured Not measured Not measured Not measured Not measured Full data
River Gauge Tauwitchere Barrage Murray 0.77 m 3/12/2022 8:00 Not measured Not measured Not measured Not measured Not measured Not measured Full data
River Gauge Frenchman Creek Murray 29.77 m 2/12/2022 9:00 Not measured Not measured 3125 ML/d2/12/2022 9:00 Not measured Not measured Not measured Full data
River Gauge Echuca Wharf Murray 93.78 m 3/12/2022 8:00 Not measured Not measured Not measured Not measured Not measured Not measured Full data
River Gauge Biggara Murray 1.13 m 3/12/2022 10:00 2902 ML/Day 3/12/2022 10:00 Not measured Not measured 14.8°C 3/12/2022 10:00 12.2 μS/cm 2/12/2022 9:00 0.00 mm 3/12/2022 10:00 Full data
River Gauge Hinnomunjie Mitta 1.24 m 3/12/2022 9:00 1855 ML/Day 3/12/2022 9:00 Not measured Not measured 14.3°C 3/12/2022 9:00 143.1 μS/cm 3/12/2022 9:00 0.00 mm 3/12/2022 9:00 Full data
River Gauge Tallandoon Mitta 3.41 m 3/12/2022 9:00 10001 ML/Day 3/12/2022 9:00 Not measured Not measured 16.5°C 3/12/2022 9:00 30.4 μS/cm 3/12/2022 9:00 Not measured Full data
River Gauge Redcliffs Murray Not measured Not measured Not measured Not measured Not measured 108.7 μS/cm 31/08/2022 8:00 Not measured Full data
River Gauge Mundoo Barrage Murray 0.59 m 2/12/2022 9:00 Not measured Not measured Not measured Not measured Not measured Not measured Full data
River Gauge Wilcania Darling 10.41 m 3/12/2022 10:00 33805 ML/Day 3/12/2022 10:00 Not measured Not measured 24.8°C 3/12/2022 10:00 364 μS/cm 2/12/2022 9:00 Not measured Full data
River Gauge Bringenbrong Bridge Murray 1.89 m 3/12/2022 10:00 6468 ML/Day 3/12/2022 10:00 Not measured Not measured Not measured Not measured Not measured Full data
River Gauge Morgan Downstream Murray Not measured Not measured Not measured Not measured Not measured 306.1 μS/cm 3/12/2022 9:00 Not measured Full data
River Gauge Tallandoon Mitta 3.41 m 3/12/2022 9:00 10001 ML/Day 3/12/2022 9:00 Not measured Not measured 16.5°C 3/12/2022 9:00 30.4 μS/cm 3/12/2022 9:00 Not measured Full data
River Gauge Balranald Murrumbidgee 7.38 m 3/12/2022 9:00 53080 ML/Day 3/12/2022 9:00 Not measured Not measured 24.2°C 3/12/2022 9:00 202.1 μS/cm 3/12/2022 9:00 Not measured Full data
River Gauge Rufus River Murray 25.59 m 2/12/2022 9:00 Not measured Not measured 1658.2 ML/d2/12/2022 9:00 Not measured 304.7 μS/cm 3/12/2022 9:00 Not measured Full data
River Gauge Pinegrove Murray 2.31 m 3/12/2022 10:00 2532 ML/Day 3/12/2022 10:00 Not measured Not measured 16.9°C 3/12/2022 10:00 61.6 μS/cm 3/12/2022 10:00 0.00 mm 3/12/2022 8:00 Full data
River Gauge Colignan Murray 8.85 m 3/12/2022 9:00 175727 ML/Day 3/12/2022 9:00 Not measured Not measured 23.5°C 3/12/2022 9:00 182.3 μS/cm 3/12/2022 9:00 Not measured Full data
River Gauge Yarrawonga Main Channel Murray 123.8 m 3/12/2022 9:00 Not measured Not measured 1540 ML/d3/12/2022 9:00 Not measured Not measured Not measured Full data
River Gauge Peechelba Ovens 129.69 m 3/12/2022 9:00 11509 ML/Day 3/12/2022 9:00 Not measured Not measured 18.9°C 3/12/2022 9:00 59.8 μS/cm 3/12/2022 9:00 Not measured Full data
River Gauge Weir 32 Upstream Darling 7.02 m 3/12/2022 9:00 30055 ML/Day 3/12/2022 9:00 Not measured Not measured 24.7°C 3/12/2022 9:00 381.7 μS/cm 3/12/2022 9:00 Not measured Full data
River Gauge Jingellic Murray 2.54 m 3/12/2022 9:00 11824 ML/Day 3/12/2022 9:00 Not measured Not measured 18.4°C 3/12/2022 9:00 51.3 μS/cm 3/12/2022 9:00 0.00 mm 3/12/2022 9:00 Full data
River Gauge Colignan Murray 8.85 m 3/12/2022 9:00 175727 ML/Day 3/12/2022 9:00 Not measured Not measured 23.5°C 3/12/2022 9:00 182.3 μS/cm 3/12/2022 9:00 Not measured Full data
River Gauge Mulwala Canal Murray Not measured Not measured Not measured 2500 ML/d3/12/2022 10:00 Not measured Not measured Not measured Full data
River Gauge Edward Escape Wakool Not measured Not measured Not measured Not measured 23.7°C 3/12/2022 9:00 118.5 μS/cm 2/12/2022 9:00 Not measured Full data
River Gauge Burtundy Darling 7.16 m 3/12/2022 10:00 17544 ML/Day 3/12/2022 10:00 Not measured Not measured 24°C 3/12/2022 10:00 363.7 μS/cm 2/12/2022 9:00 Not measured Full data
River Gauge Torrumbarry Headworks Murray 84.33 m 3/12/2022 9:00 Not measured Not measured 636.2 ML/d3/12/2022 9:00 Not measured Not measured Not measured Full data
River Gauge Colemans Mitta 2.62 m 3/12/2022 10:00 8090 ML/Day 3/12/2022 10:00 Not measured Not measured 17.7°C 3/12/2022 9:00 25.2 μS/cm 3/12/2022 9:00 Not measured Full data
River Gauge Murray Bridge Murray 1.1 m 3/12/2022 9:00 Not measured Not measured Not measured 21.7°C 3/12/2022 8:00 310.1 μS/cm 3/12/2022 9:00 Not measured Full data
River Gauge Tocumwal Murray Not measured Not measured Not measured Not measured Not measured Not measured Not measured Full data
River Gauge McCoy Bridge Goulburn 8 m 3/12/2022 9:00 20059 ML/Day 3/12/2022 9:00 Not measured Not measured 19.1°C 3/12/2022 9:00 119.1 μS/cm 3/12/2022 9:00 Not measured Full data
River Gauge Flow to South Australia Murray Not measured Not measured Not measured 151946 ML/d2/12/2022 9:00 Not measured Not measured Not measured Full data
River Gauge Stoney Crossing Murray 10.87 m 3/12/2022 9:00 134912 ML/Day 3/12/2022 9:00 Not measured 976.2 ML/d14/01/2022 7:45 23.7°C 3/12/2022 9:00 132.8 μS/cm 3/12/2022 9:00 Not measured Full data
River Gauge Doctors Point Murray 4.29 m 3/12/2022 10:00 32430 ML/Day 3/12/2022 10:00 Not measured Not measured 15.8°C 3/12/2022 10:00 80.3 μS/cm 3/12/2022 10:00 Not measured Full data
River Gauge Colemans Mitta 2.62 m 3/12/2022 10:00 8090 ML/Day 3/12/2022 10:00 Not measured Not measured 17.7°C 3/12/2022 9:00 25.2 μS/cm 3/12/2022 9:00 Not measured Full data
River Gauge Lake Alexandrina Murray 0.86 m 3/12/2022 11:00 Not measured 1686 GL 3/12/2022 11:00 Not measured Not measured 304.2 μS/cm 3/12/2022 8:00 Not measured Full data
River Gauge Edward River Offtake Murray 3.13 m 3/12/2022 10:00 2992 ML/Day 3/12/2022 10:00 Not measured Not measured 21.9°C 3/12/2022 9:00 74.8 μS/cm 2/12/2022 9:00 Not measured Full data
River Gauge Bandiana Kiewa 2.88 m 3/12/2022 9:00 4694 ML/Day 3/12/2022 9:00 Not measured Not measured 17.6°C 3/12/2022 9:00 40.9 μS/cm 3/12/2022 9:00 Not measured Full data
River Gauge Swan Hill Murray 4.42 m 3/12/2022 9:00 28263 ML/Day 3/12/2022 9:00 Not measured Not measured 22.5°C 3/12/2022 9:00 309.5 μS/cm 3/12/2022 9:00 Not measured Full data
River Gauge Albury (Union Bridge) Murray 3.41 m 3/12/2022 10:00 Not measured Not measured Not measured 16.2°C 3/12/2022 10:00 59.5 μS/cm 3/12/2022 10:00 Not measured Full data
River Gauge Colemans Mitta 2.62 m 3/12/2022 10:00 8090 ML/Day 3/12/2022 10:00 Not measured Not measured 17.7°C 3/12/2022 9:00 25.2 μS/cm 3/12/2022 9:00 Not measured Full data
River Gauge Rochester Campaspe 2.91 m 3/12/2022 9:00 945 ML/Day 3/12/2022 9:00 Not measured Not measured 32.7°C 3/12/2022 9:00 1326.7 μS/cm 3/12/2022 9:00 0.00 mm 3/12/2022 9:00 Full data
River Gauge Lake Albert Murray 0.84 m 3/12/2022 11:00 Not measured 286 GL 3/12/2022 11:00 Not measured Not measured Not measured Not measured Full data
Storage Lake Victoria Murray 25.99 m 3/12/2022 9:00 Not measured 557 GL 3/12/2022 9:00 Not measured 18.9°C 3/12/2022 9:00 180.5 μS/cm 3/12/2022 9:00 Not measured Full data
Storage Dartmouth Dam Mitta 486.58 m 3/12/2022 10:00 Not measured 3895 GL 3/12/2022 10:00 Not measured Not measured Not measured Not measured Full data
Storage Menindee Lakes Darling Not measured Not measured 1745 GL 2/12/2022 10:00 Not measured Not measured Not measured Not measured Full data
Storage Dartmouth Dam Mitta 486.58 m 3/12/2022 10:00 Not measured 3895 GL 3/12/2022 10:00 Not measured Not measured Not measured Not measured Full data
Storage Dartmouth Dam Mitta 486.58 m 3/12/2022 10:00 Not measured 3895 GL 3/12/2022 10:00 Not measured Not measured Not measured Not measured Full data
Storage Hume Dam Murray 191.45 m 3/12/2022 10:00 Not measured 2895 GL 3/12/2022 10:00 22904.3 ML/d3/12/2022 10:00 Not measured Not measured 0.00 mm 3/12/2022 10:00 Full data
Weirs Lock 8 Upstream Murray 26.9 m 9/11/2022 9:00 Not measured Not measured Not measured 19.5°C 28/10/2022 11:00 227 μS/cm 18/11/2022 9:00 Not measured Full data
Weirs Lock 2 Downstream Murray 9.15 m 2/12/2022 10:00 Not measured Not measured Not measured Not measured Not measured Not measured Full data
Weirs Lock 6 Upstream Murray 20.94 m 2/12/2022 13:00 Not measured Not measured Not measured 24°C 2/12/2022 15:00 257.2 μS/cm 2/12/2022 15:00 Not measured Full data
Weirs Lock 2 Upstream Murray Not measured Not measured Not measured Not measured 20.2°C 28/10/2022 14:00 298 μS/cm 2/12/2022 9:00 Not measured Full data
Weirs Lock 5 Downstream Murray 18.02 m 3/12/2022 8:00 Not measured Not measured Not measured Not measured Not measured Not measured Full data
Weirs Euston Weir Upstream Murray 52.09 m 3/12/2022 10:00 Not measured 55 GL 7/10/2022 9:00 Not measured Not measured Not measured 145.9 mm 5/03/2020 9:00 Full data
Weirs Yarrawonga Weir Upstream Murray 124.66 m 3/12/2022 10:00 Not measured Not measured Not measured Not measured Not measured 0.00 mm 3/12/2022 10:00 Full data
Weirs Wentworth Weir Murray 33.93 m 3/12/2022 10:00 Not measured Not measured Not measured Not measured 136.0 μS/cm 28/09/2021 7:45 Not measured Full data
Weirs Torrumbarry Weir Downstream Murray 7.8 m 3/12/2022 9:00 52969 ML/Day 3/12/2022 9:00 Not measured Not measured 21°C 3/12/2022 9:00 122.6 μS/cm 3/12/2022 9:00 Not measured Full data
Weirs Euston Weir Downstream Murray 52.03 m 3/12/2022 9:00 206927 ML/Day 3/12/2022 9:00 Not measured Not measured 23.2°C 3/12/2022 9:00 188.3 μS/cm 3/12/2022 9:00 Not measured Full data
Weirs Yarrawonga Weir Downstream Murray 5.45 m 3/12/2022 10:00 56709 ML/Day 3/12/2022 10:00 Not measured Not measured 22°C 3/12/2022 10:00 68 μS/cm 2/12/2022 9:00 Not measured Full data
Weirs Lock 5 Upstream Murray Not measured Not measured Not measured Not measured 21.7°C 28/11/2022 17:00 275.5 μS/cm 28/11/2022 17:00 Not measured Full data
Weirs Torrumbarry Weir Downstream Murray 7.8 m 3/12/2022 9:00 52969 ML/Day 3/12/2022 9:00 Not measured Not measured 21°C 3/12/2022 9:00 122.6 μS/cm 3/12/2022 9:00 Not measured Full data
Weirs Lock 1 Downstream Murray 5.01 m 3/12/2022 8:00 Not measured Not measured 99447.9 ML/d2/12/2022 9:00 Not measured Not measured Not measured Full data
Weirs Yarrawonga Weir Downstream Murray 5.45 m 3/12/2022 10:00 56709 ML/Day 3/12/2022 10:00 Not measured Not measured 22°C 3/12/2022 10:00 68 μS/cm 2/12/2022 9:00 Not measured Full data
Weirs Lock 4 Downstream Murray 15.19 m 2/12/2022 10:00 Not measured Not measured Not measured Not measured Not measured Not measured Full data
Weirs Lock 7 Downstream Murray 25.51 m 1/12/2022 9:00 Not measured Not measured Not measured Not measured Not measured Not measured Full data
Weirs Torrumbarry Weir Upstream Murray 86.38 m 3/12/2022 9:00 Not measured 37 GL 3/12/2022 9:00 Not measured 21°C 3/12/2022 9:00 0.00 μS/cm 1/12/2022 1:00 0.00 mm 3/12/2022 9:00 Full data
Weirs Lock 1 Upstream Murray 5.01 m 3/12/2022 8:00 Not measured Not measured Not measured 22.2°C 3/12/2022 8:00 309.6 μS/cm 3/12/2022 8:00 Not measured Full data
Weirs Mildura Weir downstream Murray 38.07 m 3/12/2022 9:00 Not measured Not measured Not measured 23.5°C 3/12/2022 9:00 191.2 μS/cm 3/12/2022 9:00 Not measured Full data
Weirs Lock 4 Upstream Murray 15.12 m 1/12/2022 10:00 Not measured Not measured Not measured Not measured Not measured Not measured Full data
Weirs Lock 7 Upstream Murray 25.51 m 1/12/2022 10:00 Not measured Not measured Not measured 25.4°C 22/11/2022 16:00 222.1 μS/cm 1/12/2022 9:00 Not measured Full data
Weirs Lock 9 Downstream Murray 29.91 m 2/12/2022 9:00 Not measured Not measured Not measured Not measured Not measured Not measured Full data
Weirs Steven's Weir Upstream Edward 6.57 m 3/12/2022 10:00 Not measured Not measured Not measured Not measured Not measured Not measured Full data
Weirs Lock 3 Downstream Murray 12.01 m 2/12/2022 9:00 Not measured Not measured Not measured Not measured Not measured Not measured Full data
Weirs Lock 9 Upstream Murray 29.92 m 3/12/2022 8:00 Not measured Not measured Not measured 19.8°C 31/10/2022 14:00 241 μS/cm 2/12/2022 9:00 Not measured Full data
Weirs Steven's Weir Downstream Edward 6.45 m 3/12/2022 9:00 38895 ML/Day 13/11/2022 9:00 Not measured Not measured 22.5°C 3/12/2022 9:00 110.7 μS/cm 2/12/2022 9:00 Not measured Full data
Weirs Lock 3 Upstream Murray Not measured Not measured Not measured Not measured Not measured Not measured Not measured Full data
Weirs Lock 6 Downstream Murray 0.33 m 2/12/2022 16:00 Not measured Not measured Not measured Not measured Not measured Not measured Full data